Stove Pipe Wells, California
Current Conditions -  °F | °C
As of 8:52 PM on Saturday 20 Dec 2014 (Local Time) from KDRA Reporting Station
Clear Clear  
Wind Chill: 40°   Ceiling: Unl
Heat Index: 40°   Visibility: 10mi
Dew Point: 36°   Wind: 3mph
Humidity: 86%   Direction: 60°ENE
Pressure: 30.17"   Gusts: NA
Location:  36.3785°N, 117.161°W
Report Text: KDRA 210452Z AUTO 06003KT 10SM CLR 04/02 A3017 RMK AO2 SLP212 T00440022 $
Loading
Personal Weather Stations






























Interactive Weather Map New forecast layout! Learn more

10-Day Weather Forecast

Advertisements
Track Severe Weather on mobile